Sofia Airport

LBSF · Sofia-Capital, Bulgarije

METAR historie LBSF · Luchthaven Sofia

Hieronder zie je METAR's van de afgelopen dagen. Kies een jaar om door oudere METAR's te bladeren, vanaf het jaar 2007.

25 mei 2024

Tijd Code Weer Temp. Zicht Plafond Wind METAR/SPECI
13:00
V
24 °C 10 km+ - 090° 090° 9 kt METAR LBSF 251000Z 09009KT 9999 SCT066 24/06 Q1019 NOSIG
12:30
V
23 °C 10 km+ - 080° 080° 10 kt METAR LBSF 250930Z 08010KT 050V120 9999 SCT066 23/07 Q1019 NOSIG
12:00
V
22 °C 10 km+ - 100° 100° 10 kt METAR LBSF 250900Z 10010KT 9999 FEW066 22/08 Q1019 NOSIG
11:30
V
21 °C 10 km+ - 100° 100° 9 kt METAR LBSF 250830Z 10009KT 070V140 CAVOK 21/09 Q1019 NOSIG
11:00
V
20 °C 10 km+ - 090° 090° 7 kt METAR LBSF 250800Z 09007KT 050V110 9999 FEW055 20/12 Q1019 NOSIG
10:30
V
19 °C 10 km+ - 100° 100° 3 kt METAR LBSF 250730Z 10003KT 040V170 CAVOK 19/13 Q1019 NOSIG
10:00
V
17 °C 10 km+ - Var Var 2 kt METAR LBSF 250700Z VRB02KT CAVOK 17/13 Q1020 NOSIG
09:30
V
16 °C 10 km+ - 080° 080° 4 kt METAR LBSF 250630Z 08004KT 040V120 CAVOK 16/12 Q1020 NOSIG
09:00
V
15 °C 10 km+ - Var Var 2 kt METAR LBSF 250600Z VRB02KT CAVOK 15/12 Q1020 NOSIG
08:30
V
14 °C 10 km+ - Var Var 1 kt METAR LBSF 250530Z VRB01KT CAVOK 14/11 Q1020 NOSIG
08:00
V
12 °C 8 km - 090° 090° 3 kt METAR LBSF 250500Z 09003KT 8000 NSC 12/11 Q1020 NOSIG
07:30
V
11 °C 8 km - 040° 040° 3 kt METAR LBSF 250430Z 04003KT 8000 NSC 11/10 Q1020 TEMPO 4000 BR
07:00
V
11 °C 8 km - 130° 130° 3 kt METAR LBSF 250400Z 13003KT 080V160 8000 NSC 11/09 Q1020 TEMPO 3000 BR
06:30
V
10 °C 8 km - 150° 150° 4 kt METAR LBSF 250330Z 15004KT 8000 FEW004 10/09 Q1019 TEMPO 3000 BR
06:00
V
9 °C 10 km+ - 110° 110° 3 kt METAR LBSF 250300Z AUTO 11003KT 9999 FEW003/// 09/09 Q1020 TEMPO 3000 BR
05:30
V
9 °C 10 km+ - Var Var 2 kt METAR LBSF 250230Z AUTO VRB02KT 9999 FEW003/// 09/09 Q1019 TEMPO 3000 BR
05:00
V
10 °C 10 km+ - 070° 070° 3 kt METAR LBSF 250200Z AUTO 07003KT 010V110 9999 FEW063/// 10/09 Q1019 NOSIG
04:30
V
10 °C 10 km+ - Var Var 2 kt METAR LBSF 250130Z AUTO VRB02KT 9999 NCD 10/09 Q1019 NOSIG
04:00
V
10 °C 10 km+ - 360° 360° 0 kt METAR LBSF 250100Z AUTO 00000KT 9999 FEW064/// 10/09 Q1020 NOSIG
03:30
V
11 °C 10 km+ - 360° 360° 0 kt METAR LBSF 250030Z AUTO 00000KT 9999 FEW062/// 11/10 Q1020 NOSIG
03:00
V
11 °C 10 km+ - Var Var 2 kt METAR LBSF 250000Z AUTO VRB02KT 9999 NCD 11/10 Q1020 NOSIG
02:30
V
12 °C 10 km+ - 160° 160° 3 kt METAR LBSF 242330Z AUTO 16003KT 130V200 9999 NCD 12/10 Q1020 NOSIG
02:00
V
11 °C 10 km+ - Var Var 1 kt METAR LBSF 242300Z AUTO VRB01KT 9999 NCD 11/10 Q1020 NOSIG
01:30
V
12 °C 10 km+ - Var Var 2 kt METAR LBSF 242230Z AUTO VRB02KT 9999 NCD 12/11 Q1020 NOSIG
01:00
V
12 °C 10 km+ - 360° 360° 0 kt METAR LBSF 242200Z AUTO 00000KT 9999 NCD 12/11 Q1020 NOSIG
00:30
V
13 °C 10 km+ - 200° 200° 4 kt METAR LBSF 242130Z AUTO 20004KT 170V260 9999 NCD 13/12 Q1020 NOSIG
00:00
V
13 °C 10 km+ - 190° 190° 4 kt METAR LBSF 242100Z AUTO 19004KT 150V230 9999 NCD 13/11 Q1019 NOSIG

24 mei 2024

Tijd Code Weer Temp. Zicht Plafond Wind METAR/SPECI
23:30
V
14 °C 10 km+ - 210° 210° 4 kt METAR LBSF 242030Z AUTO 21004KT 190V250 9999 NSC 14/11 Q1019 NOSIG
23:00
V
14 °C 10 km+ - 280° 280° 3 kt METAR LBSF 242000Z AUTO 28003KT 240V310 9999 NCD 14/12 Q1019 NOSIG
22:30
V
16 °C 10 km+ - 220° 220° 4 kt METAR LBSF 241930Z AUTO 22004KT 190V310 9999 NSC 16/12 Q1019 NOSIG
22:00
V
17 °C 10 km+ - 200° 200° 4 kt METAR LBSF 241900Z AUTO 20004KT 9999 NSC 17/12 Q1019 NOSIG
21:30
V
18 °C 10 km+ - 220° 220° 4 kt METAR LBSF 241830Z AUTO 22004KT 190V280 9999 -SHRA FEW008/// 18/12 Q1019 NOSIG
21:00
V
18 °C 10 km+ - 180° 180° 3 kt METAR LBSF 241800Z AUTO 18003KT 9999 NSC 18/12 Q1019 NOSIG
20:30
V
18 °C 10 km+ - 200° 200° 5 kt METAR LBSF 241730Z AUTO 20005KT 9999 FEW061/// 18/12 Q1019 NOSIG
20:00
V
19 °C 10 km+ 9.000 ft Var Var 2 kt METAR LBSF 241700Z AUTO VRB02KT 9999 FEW052/// BKN090/// 19/12 Q1019 NOSIG
19:30
V
18 °C 10 km+ - 080° 080° 5 kt METAR LBSF 241630Z AUTO 08005KT 9999 -SHRA SCT053/// 18/13 Q1019 NOSIG
19:00
V
19 °C 10 km+ 6.600 ft 040° 040° 8 kt METAR LBSF 241600Z AUTO 04008KT 010V080 9999 -SHRA SCT047 SCT058 BKN066 //////CB 19/14 Q1019 TEMPO 5000 TSRA FEW030CB
18:30
V
20 °C 10 km+ 6.600 ft 010° 010° 7 kt METAR LBSF 241530Z AUTO 01007KT 9999 -SHRA VCTS SCT045 OVC066 //////CB 20/12 Q1018 TEMPO 5000 TSRA FEW030CB
18:00
V
20 °C 10 km+ 5.100 ft 360° 360° 6 kt METAR LBSF 241500Z AUTO 36006KT 330V030 9999 FEW044 BKN051 BKN060 //////CB 20/12 Q1018 TEMPO 5000 TSRA FEW030CB
17:30
V
22 °C 10 km+ 6.300 ft Var Var 4 kt METAR LBSF 241430Z VRB04KT 9999 SCT048 BKN063 22/08 Q1018 NOSIG
17:00
V
22 °C 10 km+ 8.400 ft Var Var 2 kt METAR LBSF 241400Z VRB02KT 9999 SCT046 BKN084 22/10 Q1018 NOSIG
16:30
V
22 °C 10 km+ 8.400 ft Var Var 3 kt METAR LBSF 241330Z VRB03KT 9999 FEW039 BKN084 22/11 Q1018 NOSIG
16:00
V
21 °C 10 km+ 8.400 ft Var Var 4 kt METAR LBSF 241300Z VRB04KT 9999 BKN084 21/11 Q1018 NOSIG
15:30
V
21 °C 10 km+ 7.500 ft Var Var 2 kt METAR LBSF 241230Z VRB02KT 9999 BKN075 21/11 Q1019 NOSIG
15:00
V
20 °C 10 km+ 7.600 ft 280° 280° 5 kt METAR LBSF 241200Z 28005KT 250V320 9999 BKN076 20/10 Q1019 NOSIG
14:30
V
20 °C 10 km+ 7.700 ft 280° 280° 5 kt METAR LBSF 241130Z 28005KT 210V360 9999 BKN077 20/12 Q1019 NOSIG
14:00
V
20 °C 10 km+ 7.000 ft 290° 290° 4 kt METAR LBSF 241100Z 29004KT 250V350 9999 FEW062 BKN070 20/11 Q1019 NOSIG
13:30
V
19 °C 10 km+ 6.300 ft 280° 280° 5 kt METAR LBSF 241030Z 28005KT 250V320 9999 FEW038 BKN063 19/11 Q1019 NOSIG
13:00
V
19 °C 10 km+ 6.600 ft 360° 360° 3 kt METAR LBSF 241000Z 36003KT 270V050 9999 FEW036 SCT054 BKN066 19/10 Q1019 NOSIG
12:30
V
20 °C 10 km+ 6.700 ft 330° 330° 6 kt METAR LBSF 240930Z 33006KT 260V050 9999 FEW036 BKN067 20/12 Q1019 NOSIG
12:00
V
19 °C 10 km+ 6.200 ft Var Var 3 kt METAR LBSF 240900Z VRB03KT 9999 FEW055 BKN062 19/10 Q1019 NOSIG
11:30
V
19 °C 10 km+ - Var Var 4 kt METAR LBSF 240830Z VRB04KT 9999 SCT030 19/10 Q1019 NOSIG
11:00
V
18 °C 10 km+ - 290° 290° 5 kt METAR LBSF 240800Z 29005KT 210V010 9999 SCT027 18/11 Q1019 NOSIG
10:30
V
18 °C 10 km+ - 280° 280° 5 kt METAR LBSF 240730Z 28005KT 240V320 9999 SCT022 18/11 Q1018 NOSIG
10:00
V
17 °C 10 km+ - 300° 300° 6 kt METAR LBSF 240700Z 30006KT 260V010 9999 SCT021 17/11 Q1019 NOSIG
09:30
V
16 °C 10 km+ - 300° 300° 7 kt METAR LBSF 240630Z 30007KT 270V360 9999 FEW016 SCT021 16/12 Q1018 NOSIG
09:00
V
16 °C 10 km+ - 300° 300° 5 kt METAR LBSF 240600Z 30005KT 280V340 9999 SCT019 16/12 Q1018 NOSIG
08:30
V
15 °C 10 km+ - 310° 310° 4 kt METAR LBSF 240530Z 31004KT 280V350 9999 SCT017 15/12 Q1018 NOSIG
08:00
V
15 °C 10 km+ - 360° 360° 4 kt METAR LBSF 240500Z 36004KT 300V040 9999 FEW062 15/12 Q1018 NOSIG
07:30
V
14 °C 10 km+ 6.400 ft 300° 300° 5 kt METAR LBSF 240430Z 30005KT 9999 BKN064 14/11 Q1018 NOSIG
07:00
V
14 °C 10 km+ 6.400 ft 300° 300° 6 kt METAR LBSF 240400Z 30006KT 9999 SCT026 BKN064 14/11 Q1018 NOSIG
06:30
V
13 °C 10 km+ 6.100 ft 320° 320° 5 kt METAR LBSF 240330Z 32005KT 9999 BKN061 13/11 Q1017 NOSIG
06:00
V
13 °C 10 km+ 6.100 ft 310° 310° 4 kt METAR LBSF 240300Z AUTO 31004KT 9999 OVC061/// 13/11 Q1017 NOSIG
05:30
V
13 °C 10 km+ 6.900 ft 320° 320° 4 kt METAR LBSF 240230Z AUTO 32004KT 260V010 9999 SCT061/// OVC069/// 13/11 Q1017 NOSIG
05:00
V
13 °C 10 km+ 6.500 ft 290° 290° 5 kt METAR LBSF 240200Z AUTO 29005KT 9999 FEW024/// SCT055/// OVC065/// 13/11 Q1017 NOSIG
04:30
V
13 °C 10 km+ 6.400 ft 290° 290° 4 kt METAR LBSF 240130Z AUTO 29004KT 9999 SCT050/// OVC064/// 13/11 Q1017 NOSIG
04:00
V
13 °C 10 km+ 6.100 ft 290° 290° 5 kt METAR LBSF 240100Z AUTO 29005KT 9999 OVC061/// 13/11 Q1017 NOSIG
03:30
V
13 °C 10 km+ 6.400 ft 290° 290° 4 kt METAR LBSF 240030Z AUTO 29004KT 260V320 9999 OVC064/// 13/11 Q1017 NOSIG
03:00
V
13 °C 10 km+ 5.800 ft 350° 350° 4 kt METAR LBSF 240000Z AUTO 35004KT 320V020 9999 SCT046/// OVC058/// 13/11 Q1017 NOSIG
02:30
V
13 °C 10 km+ 5.600 ft 280° 280° 5 kt METAR LBSF 232330Z AUTO 28005KT 260V320 9999 SCT046/// OVC056/// 13/11 Q1017 NOSIG
02:00
V
13 °C 10 km+ 5.500 ft 330° 330° 3 kt METAR LBSF 232300Z AUTO 33003KT 300V010 9999 OVC055/// 13/11 Q1017 NOSIG
01:30
V
13 °C 10 km+ 5.000 ft 270° 270° 5 kt METAR LBSF 232230Z AUTO 27005KT 9999 SCT039/// BKN050/// 13/11 Q1017 NOSIG
01:00
V
13 °C 10 km+ 5.200 ft 300° 300° 4 kt METAR LBSF 232200Z AUTO 30004KT 270V330 9999 SCT037/// BKN052/// 13/11 Q1017 NOSIG
00:30
V
13 °C 10 km+ 4.100 ft 300° 300° 5 kt METAR LBSF 232130Z AUTO 30005KT 280V020 9999 SCT035/// BKN041/// 13/11 Q1017 NOSIG
00:00
V
13 °C 10 km+ - 300° 300° 5 kt METAR LBSF 232100Z AUTO 30005KT 9999 NCD 13/11 Q1017 NOSIG

23 mei 2024

Tijd Code Weer Temp. Zicht Plafond Wind METAR/SPECI
23:30
V
13 °C 10 km+ - 290° 290° 5 kt METAR LBSF 232030Z AUTO 29005KT 9999 FEW032/// 13/11 Q1017 NOSIG
23:00
V
14 °C 10 km+ - 310° 310° 3 kt METAR LBSF 232000Z AUTO 31003KT 280V030 9999 NCD 14/11 Q1017 NOSIG
22:30
V
15 °C 10 km+ - 350° 350° 4 kt METAR LBSF 231930Z AUTO 35004KT 9999 SCT063/// 15/11 Q1017 NOSIG
22:00
V
14 °C 10 km+ - 300° 300° 3 kt METAR LBSF 231900Z AUTO 30003KT 9999 NCD 14/11 Q1016 NOSIG
21:30
V
16 °C 10 km+ - 290° 290° 3 kt METAR LBSF 231830Z AUTO 29003KT 240V360 9999 FEW046/// 16/11 Q1016 NOSIG
21:00
V
16 °C 10 km+ - 350° 350° 3 kt METAR LBSF 231800Z AUTO 35003KT 9999 FEW040/// SCT048/// 16/11 Q1016 NOSIG
20:30
V
17 °C 10 km+ 3.700 ft 360° 360° 4 kt METAR LBSF 231730Z AUTO 36004KT 320V040 9999 BKN037/// 17/11 Q1016 NOSIG
20:00
V
18 °C 10 km+ - 290° 290° 3 kt METAR LBSF 231700Z AUTO 29003KT 260V010 9999 FEW041/// 18/11 Q1015 NOSIG
19:30
V
18 °C 10 km+ - 010° 010° 6 kt METAR LBSF 231630Z AUTO 01006KT 9999 FEW046/// 18/11 Q1015 NOSIG
19:00
V
18 °C 10 km+ 8.600 ft 350° 350° 6 kt METAR LBSF 231600Z AUTO 35006KT 290V020 9999 SCT069/// BKN086/// 18/11 Q1015 NOSIG
18:30
V
18 °C 10 km+ 9.000 ft 350° 350° 7 kt METAR LBSF 231530Z AUTO 35007KT 310V020 9999 FEW042/// SCT048/// BKN090/// 18/12 Q1015 NOSIG
18:00
V
19 °C 10 km+ 4.100 ft 340° 340° 7 kt METAR LBSF 231500Z AUTO 34007KT 300V010 9999 BKN041/// BKN063/// 19/11 Q1015 NOSIG
17:30
V
19 °C 10 km+ - 340° 340° 8 kt METAR LBSF 231430Z 34008KT 280V020 9999 FEW051 19/11 Q1015 NOSIG
17:00
V
19 °C 10 km+ 8.900 ft 340° 340° 6 kt METAR LBSF 231400Z 34006KT 300V010 9999 FEW029 BKN089 19/12 Q1015 NOSIG
16:30
V
18 °C 10 km+ 7.500 ft 340° 340° 6 kt METAR LBSF 231330Z 34006KT 290V010 9999 FEW041 BKN075 18/12 Q1015 NOSIG
16:00
V
18 °C 10 km+ 7.000 ft 330° 330° 7 kt METAR LBSF 231300Z 33007KT 290V010 9999 FEW041 BKN070 18/12 Q1015 NOSIG
15:30
V
19 °C 10 km+ 7.000 ft 330° 330° 6 kt METAR LBSF 231230Z 33006KT 290V010 9999 SCT045 SCT055 BKN070 19/11 Q1015 NOSIG
15:00
V
21 °C 10 km+ 4.300 ft 320° 320° 8 kt METAR LBSF 231200Z 32008KT 270V020 9999 FEW036 BKN043 21/11 Q1014 NOSIG
14:30
V
19 °C 10 km+ 7.200 ft 280° 280° 12 kt METAR LBSF 231130Z 28012KT 9999 SCT041 BKN072 19/11 Q1015 NOSIG
14:00
V
19 °C 10 km+ 6.900 ft 270° 270° 14 kt METAR LBSF 231100Z 27014KT 250V310 9999 FEW041 BKN069 19/10 Q1015 TEMPO TSRA FEW030CB
13:30
V
20 °C 10 km+ 6.900 ft 290° 290° 14 kt METAR LBSF 231030Z 29014KT 9999 FEW037TCU SCT041 BKN069 20/11 Q1014 TEMPO TSRA FEW030CB
13:00
V
20 °C 10 km+ - 270° 270° 15 kt METAR LBSF 231000Z 27015KT 250V310 9999 VCSH FEW039TCU SCT072 20/11 Q1014 TEMPO TSRA FEW030CB
12:30
V
19 °C 10 km+ - 270° 270° 13 kt METAR LBSF 230930Z 27013KT 9999 SCT037 19/12 Q1015 NOSIG
12:00
V
19 °C 10 km+ - 270° 270° 12 kt METAR LBSF 230900Z 27012KT 9999 FEW032 19/12 Q1015 NOSIG
11:30
V
18 °C 10 km+ - 270° 270° 14 kt METAR LBSF 230830Z 27014KT 9999 SCT027 18/12 Q1015 NOSIG
11:00
V
17 °C 10 km+ - 280° 280° 14 kt METAR LBSF 230800Z 28014KT 9999 SCT025 SCT063 17/11 Q1015 NOSIG
10:30
M
17 °C 10 km+ 2.600 ft 290° 290° 11 kt METAR LBSF 230730Z 29011KT 260V320 9999 SCT023 BKN026 17/12 Q1015 NOSIG
10:00
V
16 °C 10 km+ - 290° 290° 11 kt METAR LBSF 230700Z 29011KT 9999 SCT020 16/13 Q1015 NOSIG
09:30
V
16 °C 10 km+ - 280° 280° 10 kt METAR LBSF 230630Z 28010KT 250V310 9999 FEW014 16/12 Q1015 NOSIG
09:00
V
15 °C 10 km+ - 290° 290° 6 kt METAR LBSF 230600Z 29006KT 260V320 9999 FEW008 15/13 Q1015 NOSIG
Wijziging doorgeven